AIH weather

La Manga Airport
Aipe, Huila Department, Colombia

Public forecast

Using degrees Celsius for public forecast. Weather courtesy of forecast.io.

Closest aviation weather report (METAR) to La Manga Airport

Closest report is Benito Salas Airport, 18.0 nm (33.4 km) S. Retrieved 2019/10/19 15:00 UTC (1 hour ago):

SKNV 191500Z 35006KT 330V030 9999 SCT012 BKN110 25/22 A3002 REDZ

Closest aviation forecast (TAF) to La Manga Airport

Closest forecast is Alfonso Bonilla Aragon International Airport, 70.3 nm (130.3 km) WNW. Retrieved 2019/10/19 12:42 UTC (3 hours ago):

TAF SKCL 191030Z 1912/2012 04004KT 9999 SCT020 SCT090 TEMPO 1912/1913 6000 VCFG DZ SCT013 BECMG 1918/1920 32010KT TEMPO 1921/2001 7000 DZRA SCT020CB BECMG 2001/2003 19005KT TEMPO 2009/2012 5000 VCFG -RA SCT013 TX30/1919Z TN19/2011Z